createdAt,value
2022-08-19T00:00:18.507Z,29.22
2022-08-19T00:02:50.161Z,29.21
2022-08-19T00:05:21.708Z,29.21
2022-08-19T00:07:54.791Z,29.20
2022-08-19T00:10:25.508Z,29.21
2022-08-19T00:12:55.516Z,29.20
2022-08-19T00:15:25.647Z,29.18
2022-08-19T00:17:55.502Z,29.16
2022-08-19T00:20:26.873Z,29.12
2022-08-19T00:22:59.503Z,29.10
2022-08-19T00:25:30.461Z,29.09
2022-08-19T00:28:00.908Z,29.06
2022-08-19T00:30:31.301Z,29.07
2022-08-19T00:33:01.465Z,29.06
2022-08-19T00:35:31.312Z,29.06
2022-08-19T00:38:03.845Z,29.03
2022-08-19T00:40:34.135Z,29.03
2022-08-19T00:43:04.048Z,28.94
2022-08-19T00:45:36.661Z,28.91
2022-08-19T00:48:14.713Z,28.89
2022-08-19T00:50:51.733Z,28.88
2022-08-19T00:53:28.106Z,28.85
2022-08-19T00:56:02.013Z,28.86
2022-08-19T00:58:36.275Z,28.86
2022-08-19T01:01:08.952Z,28.83
2022-08-19T01:03:57.911Z,28.83
2022-08-19T01:06:29.595Z,28.82
2022-08-19T01:09:02.542Z,28.82
2022-08-19T01:11:38.944Z,28.82
2022-08-19T01:14:09.827Z,28.82
2022-08-19T01:16:41.213Z,28.78
2022-08-19T01:19:19.815Z,28.75
2022-08-19T01:21:57.354Z,28.74
2022-08-19T01:24:29.938Z,28.75
2022-08-19T01:27:00.667Z,28.73
2022-08-19T01:29:30.530Z,28.69
2022-08-19T01:32:01.770Z,28.68
2022-08-19T01:34:31.567Z,28.66
2022-08-19T01:37:02.809Z,28.63
2022-08-19T01:39:35.301Z,28.61
2022-08-19T01:42:05.439Z,28.62
2022-08-19T01:44:37.319Z,28.60
2022-08-19T01:47:07.692Z,28.57
2022-08-19T01:49:37.549Z,28.55
2022-08-19T01:52:08.546Z,28.56
2022-08-19T01:54:40.991Z,28.50
2022-08-19T01:57:15.107Z,28.49
2022-08-19T01:59:47.517Z,28.49
2022-08-19T02:02:17.711Z,28.45
2022-08-19T02:04:47.785Z,28.45
2022-08-19T02:07:18.471Z,28.45
2022-08-19T02:09:51.043Z,28.44
2022-08-19T02:12:21.813Z,28.48
2022-08-19T02:14:51.743Z,28.48
2022-08-19T02:17:21.763Z,28.45
2022-08-19T02:19:51.669Z,28.44
2022-08-19T02:22:21.543Z,28.44
2022-08-19T02:24:53.969Z,28.43
2022-08-19T02:27:24.255Z,28.42
2022-08-19T02:29:54.762Z,28.39
2022-08-19T02:32:24.897Z,28.37
2022-08-19T02:34:54.797Z,28.38
2022-08-19T02:37:37.085Z,28.37
2022-08-19T02:40:12.399Z,28.32
2022-08-19T02:42:44.133Z,28.32
2022-08-19T02:45:14.359Z,28.31
2022-08-19T02:47:44.333Z,28.32
2022-08-19T02:50:14.692Z,28.33
2022-08-19T02:52:44.706Z,28.33
2022-08-19T02:55:17.132Z,28.33
2022-08-19T02:57:47.805Z,28.32
2022-08-19T03:00:19.215Z,28.30
2022-08-19T03:02:49.837Z,28.25
2022-08-19T03:05:19.995Z,28.21
2022-08-19T03:07:58.293Z,28.18
2022-08-19T03:10:30.708Z,28.14
2022-08-19T03:13:00.539Z,28.13
2022-08-19T03:15:34.453Z,28.12
2022-08-19T03:18:04.312Z,28.13
2022-08-19T03:20:34.208Z,28.12
2022-08-19T03:23:04.116Z,28.11
2022-08-19T03:25:41.588Z,28.10
2022-08-19T03:28:11.514Z,28.10
2022-08-19T03:30:43.664Z,28.10
2022-08-19T03:33:18.115Z,28.06
2022-08-19T03:36:06.536Z,28.06
2022-08-19T03:38:36.531Z,28.08
2022-08-19T03:41:12.156Z,28.04
2022-08-19T03:43:43.382Z,28.06
2022-08-19T03:46:16.726Z,28.04
2022-08-19T03:48:47.872Z,27.99
2022-08-19T03:51:30.518Z,27.97
2022-08-19T03:54:03.656Z,27.92
2022-08-19T03:56:37.805Z,27.91
2022-08-19T03:59:08.989Z,27.90
2022-08-19T04:01:39.487Z,27.88
2022-08-19T04:04:09.539Z,27.89
2022-08-19T04:06:40.863Z,27.87
2022-08-19T04:09:12.556Z,27.87
2022-08-19T04:11:48.270Z,27.84
2022-08-19T04:14:20.614Z,27.83
2022-08-19T04:16:51.420Z,27.80
2022-08-19T04:19:22.889Z,27.81
2022-08-19T04:21:55.193Z,27.80
2022-08-19T04:24:26.027Z,27.80
2022-08-19T04:26:59.156Z,27.77
2022-08-19T04:29:29.928Z,27.73
2022-08-19T04:32:08.417Z,27.71
2022-08-19T04:35:02.423Z,27.69
2022-08-19T04:37:35.421Z,27.70
2022-08-19T04:40:21.006Z,27.69
2022-08-19T04:42:55.025Z,27.71
2022-08-19T04:45:25.337Z,27.74
2022-08-19T04:48:25.682Z,27.76
2022-08-19T04:50:50.232Z,27.79
2022-08-19T04:53:20.055Z,27.80
2022-08-19T04:55:49.931Z,27.82
2022-08-19T04:58:22.592Z,27.81
2022-08-19T05:00:52.533Z,27.85
2022-08-19T05:03:26.490Z,27.87
2022-08-19T05:05:59.113Z,27.91
2022-08-19T05:08:31.453Z,27.91
2022-08-19T05:11:01.798Z,27.92
2022-08-19T05:13:34.169Z,27.88
2022-08-19T05:16:03.946Z,27.88
2022-08-19T05:18:46.313Z,27.88
2022-08-19T05:21:31.647Z,27.83
2022-08-19T05:24:02.334Z,27.82
2022-08-19T05:26:32.159Z,27.78
2022-08-19T05:29:04.582Z,27.79
2022-08-19T05:31:35.143Z,27.82
2022-08-19T05:34:05.685Z,27.86
2022-08-19T05:36:49.334Z,27.92
2022-08-19T05:39:22.645Z,27.92
2022-08-19T05:41:58.101Z,27.92
2022-08-19T05:44:33.588Z,27.96
2022-08-19T05:47:03.885Z,28.04
2022-08-19T05:49:37.181Z,28.13
2022-08-19T05:52:08.220Z,28.17
2022-08-19T05:54:39.047Z,28.22
2022-08-19T05:57:08.918Z,28.26
2022-08-19T05:59:45.046Z,28.25
2022-08-19T06:02:16.148Z,28.25
2022-08-19T06:04:46.615Z,28.22
2022-08-19T06:07:18.017Z,28.18
2022-08-19T06:09:56.053Z,28.15
2022-08-19T06:12:29.921Z,28.13
2022-08-19T06:15:02.938Z,28.11
2022-08-19T06:17:33.023Z,28.13
2022-08-19T06:20:03.128Z,28.11
2022-08-19T06:22:33.031Z,28.09
2022-08-19T06:25:02.928Z,28.10
2022-08-19T06:27:33.846Z,28.11
2022-08-19T06:30:07.454Z,28.14
2022-08-19T06:32:41.080Z,28.14
2022-08-19T06:35:14.296Z,28.15
2022-08-19T06:37:45.319Z,28.14
2022-08-19T06:40:15.957Z,28.10
2022-08-19T06:42:54.337Z,28.10
2022-08-19T06:45:34.885Z,28.09
2022-08-19T06:48:06.301Z,28.11
2022-08-19T06:50:39.318Z,28.12
2022-08-19T06:53:09.590Z,28.15
2022-08-19T06:55:41.399Z,28.17
2022-08-19T06:58:11.310Z,28.17
2022-08-19T07:00:44.798Z,28.16
2022-08-19T07:03:14.713Z,28.18
2022-08-19T07:05:45.807Z,28.19
2022-08-19T07:08:16.352Z,28.18
2022-08-19T07:10:50.187Z,28.18
2022-08-19T07:13:20.223Z,28.18
2022-08-19T07:15:53.214Z,28.15
2022-08-19T07:18:24.029Z,28.16
2022-08-19T07:21:06.740Z,28.15
2022-08-19T07:23:40.040Z,28.17
2022-08-19T07:26:10.692Z,28.17
2022-08-19T07:28:41.014Z,28.18
2022-08-19T07:31:26.026Z,28.19
2022-08-19T07:33:58.218Z,28.20
2022-08-19T07:36:33.256Z,28.19
2022-08-19T07:39:06.519Z,28.21
2022-08-19T07:41:38.015Z,28.22
2022-08-19T07:44:09.263Z,28.25
2022-08-19T07:46:48.170Z,28.25
2022-08-19T07:49:21.117Z,28.28
2022-08-19T07:51:53.154Z,28.28
2022-08-19T07:54:24.580Z,28.31
2022-08-19T07:56:54.562Z,28.35
2022-08-19T07:59:25.048Z,28.36
2022-08-19T08:01:57.736Z,28.37
2022-08-19T08:04:40.737Z,28.38
2022-08-19T08:07:24.452Z,28.39
2022-08-19T08:10:02.967Z,28.45
2022-08-19T08:12:39.880Z,28.44
2022-08-19T08:15:17.138Z,28.45
2022-08-19T08:17:51.618Z,28.47
2022-08-19T08:20:22.493Z,28.50
2022-08-19T08:23:04.940Z,28.53
2022-08-19T08:25:36.457Z,28.53
2022-08-19T08:28:11.351Z,28.54
2022-08-19T08:30:48.934Z,28.57
2022-08-19T08:33:32.858Z,28.59
2022-08-19T08:36:05.128Z,28.68
2022-08-19T08:38:43.018Z,28.76
2022-08-19T08:41:21.273Z,28.83
2022-08-19T08:43:54.009Z,28.93
2022-08-19T08:46:31.778Z,29.09
2022-08-19T08:49:11.376Z,29.34
2022-08-19T08:51:47.477Z,29.54
2022-08-19T08:54:21.576Z,29.69
2022-08-19T08:56:55.863Z,29.76
2022-08-19T08:59:33.427Z,29.78
2022-08-19T09:02:03.774Z,29.81
2022-08-19T09:04:39.855Z,29.75
2022-08-19T09:07:35.059Z,29.70
2022-08-19T09:10:14.276Z,29.71
2022-08-19T09:12:57.548Z,29.71
2022-08-19T09:15:36.848Z,29.70
2022-08-19T09:18:07.953Z,29.67
2022-08-19T09:20:48.728Z,29.65
2022-08-19T09:23:18.597Z,29.63
2022-08-19T09:25:56.743Z,29.60
2022-08-19T09:28:28.639Z,29.58
2022-08-19T09:30:58.514Z,29.60
2022-08-19T09:33:28.406Z,29.64
2022-08-19T09:36:10.519Z,29.71
2022-08-19T09:38:43.422Z,29.81
2022-08-19T09:41:17.234Z,29.85
2022-08-19T09:43:53.015Z,29.81
2022-08-19T09:46:24.657Z,29.81
2022-08-19T09:49:06.457Z,29.85
2022-08-19T09:51:39.194Z,29.96
2022-08-19T09:54:11.348Z,29.94
2022-08-19T09:56:42.385Z,29.87
2022-08-19T09:59:13.187Z,29.80
2022-08-19T10:01:43.239Z,29.73
2022-08-19T10:04:14.761Z,29.66
2022-08-19T10:06:55.436Z,29.59
2022-08-19T10:09:34.129Z,29.53
2022-08-19T10:12:06.717Z,29.49
2022-08-19T10:14:41.451Z,29.43
2022-08-19T10:17:19.384Z,29.38
2022-08-19T10:19:55.851Z,29.35
2022-08-19T10:22:28.926Z,29.33
2022-08-19T10:25:01.970Z,29.36
2022-08-19T10:27:32.259Z,29.44
2022-08-19T10:30:02.276Z,29.62
2022-08-19T10:32:34.114Z,29.76
2022-08-19T10:35:08.071Z,29.82
2022-08-19T10:37:48.419Z,29.81
2022-08-19T10:40:27.630Z,29.80
2022-08-19T10:42:57.910Z,29.77
2022-08-19T10:45:28.429Z,29.78
2022-08-19T10:47:58.706Z,29.73
2022-08-19T10:50:41.026Z,29.67
2022-08-19T10:53:14.115Z,29.59
2022-08-19T10:55:56.470Z,29.61
2022-08-19T10:58:27.113Z,29.57
2022-08-19T11:00:58.373Z,29.56
2022-08-19T11:03:31.310Z,29.59
2022-08-19T11:06:02.391Z,29.63
2022-08-19T11:08:35.947Z,29.63
2022-08-19T11:11:07.616Z,29.65
2022-08-19T11:13:46.918Z,29.66
2022-08-19T11:16:19.915Z,29.66
2022-08-19T11:18:53.442Z,29.63
2022-08-19T11:21:26.383Z,29.59
2022-08-19T11:24:01.908Z,29.53
2022-08-19T11:26:33.108Z,29.52
2022-08-19T11:29:04.017Z,29.49
2022-08-19T11:31:36.416Z,29.46
2022-08-19T11:34:11.161Z,29.44
2022-08-19T11:36:42.766Z,29.43
2022-08-19T11:39:18.267Z,29.38
2022-08-19T11:41:48.532Z,29.34
2022-08-19T11:44:18.421Z,29.35
2022-08-19T11:46:49.594Z,29.35
2022-08-19T11:49:22.516Z,29.34
2022-08-19T11:51:53.851Z,29.35
2022-08-19T11:54:26.385Z,29.35
2022-08-19T11:56:57.177Z,29.38
2022-08-19T11:59:27.884Z,29.37
2022-08-19T12:02:00.227Z,29.39
2022-08-19T12:04:30.124Z,29.40
2022-08-19T12:07:00.026Z,29.43
2022-08-19T12:09:35.353Z,29.43
2022-08-19T12:12:05.663Z,29.47
2022-08-19T12:14:35.607Z,29.46
2022-08-19T12:17:07.469Z,29.45
2022-08-19T12:19:40.468Z,29.49
2022-08-19T12:22:10.408Z,29.51
2022-08-19T12:24:43.734Z,29.53
2022-08-19T12:27:13.607Z,29.60
2022-08-19T12:30:02.810Z,29.66
2022-08-19T12:32:32.823Z,29.70
2022-08-19T12:35:02.746Z,29.74
2022-08-19T12:37:33.328Z,29.77
2022-08-19T12:40:07.715Z,29.82
2022-08-19T12:42:38.595Z,29.92
2022-08-19T12:45:09.212Z,29.97
2022-08-19T12:47:39.048Z,30.04
2022-08-19T12:50:12.463Z,30.12
2022-08-19T12:52:43.513Z,30.16
2022-08-19T12:55:16.253Z,30.20
2022-08-19T12:57:46.106Z,30.21
2022-08-19T13:00:19.546Z,30.19
2022-08-19T13:02:51.567Z,30.30
2022-08-19T13:05:23.797Z,30.40
2022-08-19T13:07:56.895Z,30.44
2022-08-19T13:10:32.642Z,30.44
2022-08-19T13:13:03.198Z,30.47
2022-08-19T13:15:33.287Z,30.48
2022-08-19T13:18:03.338Z,30.46
2022-08-19T13:20:33.225Z,30.44
2022-08-19T13:23:03.004Z,30.42
2022-08-19T13:25:37.208Z,30.38
2022-08-19T13:28:07.977Z,30.34
2022-08-19T13:30:50.293Z,30.33
2022-08-19T13:33:20.170Z,30.28
2022-08-19T13:35:52.872Z,30.25
2022-08-19T13:38:24.567Z,30.23
2022-08-19T13:40:58.616Z,30.24
2022-08-19T13:43:30.513Z,30.27
2022-08-19T13:46:01.064Z,30.31
2022-08-19T13:48:32.102Z,30.32
2022-08-19T13:51:01.892Z,30.33
2022-08-19T13:53:31.950Z,30.35
2022-08-19T13:56:04.495Z,30.36
2022-08-19T13:58:34.346Z,30.43
2022-08-19T14:01:04.371Z,30.44
2022-08-19T14:03:34.709Z,30.48
2022-08-19T14:06:05.153Z,30.49
2022-08-19T14:08:35.027Z,30.51
2022-08-19T14:11:07.500Z,30.52
2022-08-19T14:13:37.918Z,30.56
2022-08-19T14:16:12.193Z,30.59
2022-08-19T14:18:42.666Z,30.63
2022-08-19T14:21:19.083Z,30.61
2022-08-19T14:23:48.885Z,30.59
2022-08-19T14:26:29.892Z,30.51
2022-08-19T14:29:03.861Z,30.48
2022-08-19T14:31:33.751Z,30.41
2022-08-19T14:34:03.562Z,30.39
2022-08-19T14:36:38.966Z,30.34
2022-08-19T14:39:09.428Z,30.31
2022-08-19T14:41:44.579Z,30.24
2022-08-19T14:44:14.983Z,30.21
2022-08-19T14:46:49.426Z,30.16
2022-08-19T14:49:19.712Z,30.12
2022-08-19T14:51:50.457Z,30.10
2022-08-19T14:54:20.362Z,30.05
2022-08-19T14:56:52.808Z,29.98
2022-08-19T14:59:22.946Z,29.97
2022-08-19T15:01:52.987Z,29.95
2022-08-19T15:04:22.826Z,29.92
2022-08-19T15:06:52.719Z,29.89
2022-08-19T15:09:22.615Z,29.86
2022-08-19T15:11:55.773Z,29.82
2022-08-19T15:14:25.579Z,29.81
2022-08-19T15:16:55.523Z,29.79
2022-08-19T15:19:25.402Z,29.77
2022-08-19T15:21:55.848Z,29.73
2022-08-19T15:24:26.302Z,29.68
2022-08-19T15:26:59.468Z,29.63
2022-08-19T15:29:29.362Z,29.62
2022-08-19T15:31:59.255Z,29.60
2022-08-19T15:34:29.853Z,29.58
2022-08-19T15:37:00.233Z,29.55
2022-08-19T15:39:30.208Z,29.54
2022-08-19T15:42:04.129Z,29.52
2022-08-19T15:44:37.224Z,29.53
2022-08-19T15:47:07.392Z,29.51
2022-08-19T15:49:37.227Z,29.50
2022-08-19T15:52:08.051Z,29.50
2022-08-19T15:54:37.908Z,29.50
2022-08-19T15:57:22.922Z,29.50
2022-08-19T16:00:05.219Z,29.51
2022-08-19T16:02:54.532Z,29.50
2022-08-19T16:05:39.442Z,29.50
2022-08-19T16:08:10.380Z,29.46
2022-08-19T16:10:41.149Z,29.47
2022-08-19T16:15:58.030Z,29.46
2022-08-19T16:18:28.188Z,29.44
2022-08-19T16:20:58.103Z,29.43
2022-08-19T16:23:28.013Z,29.42
2022-08-19T16:25:57.986Z,29.39
2022-08-19T16:28:30.513Z,29.39
2022-08-19T16:31:00.399Z,29.40
2022-08-19T16:33:30.324Z,29.37
2022-08-19T16:36:06.970Z,29.35
2022-08-19T16:38:37.852Z,29.35
2022-08-19T16:41:08.077Z,29.33
2022-08-19T16:43:40.632Z,29.32
2022-08-19T16:46:11.438Z,29.32
2022-08-19T16:48:46.393Z,29.32
2022-08-19T16:51:18.727Z,29.33
2022-08-19T16:53:49.113Z,29.34
2022-08-19T16:56:19.638Z,29.33
2022-08-19T16:58:53.944Z,29.31
2022-08-19T17:01:23.894Z,29.32
2022-08-19T17:03:53.819Z,29.31
2022-08-19T17:06:26.501Z,29.30
2022-08-19T17:08:59.339Z,29.30
2022-08-19T17:11:31.637Z,29.30
2022-08-19T17:14:05.050Z,29.30
2022-08-19T17:16:37.407Z,29.25
2022-08-19T17:19:10.136Z,29.25
2022-08-19T17:21:41.204Z,29.23
2022-08-19T17:24:12.226Z,29.20
2022-08-19T17:26:42.299Z,29.17
2022-08-19T17:29:15.026Z,29.14
2022-08-19T17:31:45.132Z,29.13
2022-08-19T17:34:15.502Z,29.09
2022-08-19T17:36:45.423Z,29.05
2022-08-19T17:39:15.323Z,29.02
2022-08-19T17:41:45.369Z,29.00
2022-08-19T17:44:19.037Z,28.98
2022-08-19T17:46:49.270Z,28.95
2022-08-19T17:49:20.019Z,28.94
2022-08-19T17:51:52.350Z,28.92
2022-08-19T17:54:22.897Z,28.92
2022-08-19T17:56:52.812Z,28.91
2022-08-19T17:59:26.538Z,28.89
2022-08-19T18:02:00.381Z,28.88
2022-08-19T18:04:30.920Z,28.87
2022-08-19T18:07:04.332Z,28.86
2022-08-19T18:09:52.859Z,28.83
2022-08-19T18:12:27.243Z,28.85
2022-08-19T18:15:04.571Z,28.83
2022-08-19T18:17:36.004Z,28.84
2022-08-19T18:20:11.786Z,28.81
2022-08-19T18:22:43.656Z,28.78
2022-08-19T18:25:17.501Z,28.76
2022-08-19T18:27:47.991Z,28.75
2022-08-19T18:30:22.386Z,28.74
2022-08-19T18:32:52.964Z,28.73
2022-08-19T18:35:29.757Z,28.72
2022-08-19T18:38:00.975Z,28.72
2022-08-19T18:40:44.451Z,28.69
2022-08-19T18:43:32.456Z,28.67
2022-08-19T18:46:17.406Z,28.66
2022-08-19T18:48:59.663Z,28.64
2022-08-19T18:51:30.045Z,28.62
2022-08-19T18:54:01.303Z,28.59
2022-08-19T18:56:33.379Z,28.57
2022-08-19T18:59:04.298Z,28.55
2022-08-19T19:01:40.307Z,28.53
2022-08-19T19:04:13.554Z,28.50
2022-08-19T19:06:45.374Z,28.49
2022-08-19T19:09:18.030Z,28.50
2022-08-19T19:11:50.468Z,28.48
2022-08-19T19:14:47.805Z,28.46
2022-08-19T19:17:17.993Z,28.48
2022-08-19T19:19:48.147Z,28.47
2022-08-19T19:22:22.664Z,28.44
2022-08-19T19:24:54.238Z,28.43
2022-08-19T19:27:24.665Z,28.42
2022-08-19T19:29:55.806Z,28.41
2022-08-19T19:32:38.685Z,28.41
2022-08-19T19:35:12.663Z,28.39
2022-08-19T19:37:43.456Z,28.40
2022-08-19T19:40:13.959Z,28.39
2022-08-19T19:42:43.829Z,28.38
2022-08-19T19:45:13.863Z,28.39
2022-08-19T19:47:50.258Z,28.35
2022-08-19T19:50:21.063Z,28.33
2022-08-19T19:52:50.953Z,28.32
2022-08-19T19:55:20.967Z,28.30
2022-08-19T19:57:53.616Z,28.30
2022-08-19T20:00:25.213Z,28.29
2022-08-19T20:02:57.734Z,28.28
2022-08-19T20:05:28.195Z,28.26
2022-08-19T20:08:10.804Z,28.25
2022-08-19T20:10:41.392Z,28.23
2022-08-19T20:13:11.724Z,28.23
2022-08-19T20:15:43.517Z,28.23
2022-08-19T20:18:16.487Z,28.21
2022-08-19T20:20:50.182Z,28.22
2022-08-19T20:23:20.545Z,28.20
2022-08-19T20:25:50.671Z,28.19
2022-08-19T20:28:22.923Z,28.17
2022-08-19T20:30:53.315Z,28.15
2022-08-19T20:33:25.752Z,28.15
2022-08-19T20:35:55.714Z,28.15
2022-08-19T20:38:25.756Z,28.15
2022-08-19T20:40:55.615Z,28.14
2022-08-19T20:43:25.604Z,28.14
2022-08-19T20:45:56.652Z,28.13
2022-08-19T20:48:29.134Z,28.11
2022-08-19T20:50:59.894Z,28.13
2022-08-19T20:53:29.896Z,28.11
2022-08-19T20:56:00.189Z,28.10
2022-08-19T20:58:30.499Z,28.10
2022-08-19T21:01:03.163Z,28.08
2022-08-19T21:03:42.472Z,28.09
2022-08-19T21:06:14.656Z,28.09
2022-08-19T21:08:45.210Z,28.08
2022-08-19T21:11:20.563Z,28.08
2022-08-19T21:13:51.087Z,28.05
2022-08-19T21:16:21.065Z,28.04
2022-08-19T21:18:53.470Z,28.02
2022-08-19T21:21:23.391Z,28.04
2022-08-19T21:23:53.243Z,28.05
2022-08-19T21:26:24.441Z,28.04
2022-08-19T21:28:54.317Z,28.05
2022-08-19T21:31:24.177Z,28.03
2022-08-19T21:33:56.646Z,28.02
2022-08-19T21:36:27.031Z,28.01
2022-08-19T21:38:56.848Z,28.00
2022-08-19T21:41:26.712Z,27.99
2022-08-19T21:43:56.894Z,27.97
2022-08-19T21:46:26.747Z,27.97
2022-08-19T21:48:59.214Z,27.95
2022-08-19T21:51:29.120Z,27.94
2022-08-19T21:53:58.949Z,27.94
2022-08-19T21:56:29.471Z,27.97
2022-08-19T21:59:00.468Z,27.97
2022-08-19T22:01:30.365Z,27.97
2022-08-19T22:04:03.102Z,27.93
2022-08-19T22:06:32.950Z,27.92
2022-08-19T22:09:02.750Z,27.93
2022-08-19T22:11:32.620Z,27.92
2022-08-19T22:14:04.313Z,27.90
2022-08-19T22:16:35.298Z,27.89
2022-08-19T22:19:08.676Z,27.88
2022-08-19T22:21:40.920Z,27.90
2022-08-19T22:24:11.808Z,27.88
2022-08-19T22:26:41.735Z,27.88
2022-08-19T22:29:15.635Z,27.86
2022-08-19T22:31:54.253Z,27.84
2022-08-19T22:34:27.246Z,27.83
2022-08-19T22:36:57.482Z,27.84
2022-08-19T22:39:27.276Z,27.84
2022-08-19T22:41:57.445Z,27.83
2022-08-19T22:44:27.853Z,27.82
2022-08-19T22:46:57.837Z,27.81
2022-08-19T22:49:30.285Z,27.78
2022-08-19T22:52:12.575Z,27.78
2022-08-19T22:54:42.512Z,27.76
2022-08-19T22:57:12.555Z,27.75
2022-08-19T22:59:42.957Z,27.74
2022-08-19T23:02:13.002Z,27.73
2022-08-19T23:04:45.509Z,27.69
2022-08-19T23:07:15.497Z,27.70
2022-08-19T23:09:46.323Z,27.69
2022-08-19T23:12:17.658Z,27.67
2022-08-19T23:14:47.603Z,27.66
2022-08-19T23:17:17.465Z,27.65
2022-08-19T23:19:53.421Z,27.60
2022-08-19T23:22:24.919Z,27.58
2022-08-19T23:24:55.998Z,27.59
2022-08-19T23:27:38.595Z,27.57
2022-08-19T23:30:22.060Z,27.54
2022-08-19T23:32:52.515Z,27.54
2022-08-19T23:35:25.923Z,27.52
2022-08-19T23:37:57.591Z,27.52
2022-08-19T23:40:27.890Z,27.50
2022-08-19T23:42:58.395Z,27.51
2022-08-19T23:45:30.278Z,27.49
2022-08-19T23:48:03.520Z,27.50
2022-08-19T23:50:35.979Z,27.48
2022-08-19T23:53:06.628Z,27.49
2022-08-19T23:55:46.499Z,27.47
2022-08-19T23:58:18.580Z,27.47
